sensor_id;sensor_type;location;lat;lon;timestamp;pressure;altitude;pressure_sealevel;temperature;humidity
25944;BME280;13742;49.306;8.636;2023-05-25T00:00:48;100983.20;;;14.15;49.45
25944;BME280;13742;49.306;8.636;2023-05-25T00:01:48;100981.73;;;14.14;49.51
25944;BME280;13742;49.306;8.636;2023-05-25T00:02:49;100980.69;;;14.13;49.30
25944;BME280;13742;49.306;8.636;2023-05-25T00:03:51;100982.34;;;14.13;49.40
25944;BME280;13742;49.306;8.636;2023-05-25T00:04:49;100981.19;;;14.13;49.55
25944;BME280;13742;49.306;8.636;2023-05-25T00:05:49;100980.12;;;14.12;49.77
25944;BME280;13742;49.306;8.636;2023-05-25T00:06:48;100981.55;;;14.09;49.18
25944;BME280;13742;49.306;8.636;2023-05-25T00:07:48;100978.98;;;14.08;49.06
25944;BME280;13742;49.306;8.636;2023-05-25T00:08:50;100980.17;;;14.09;48.97
25944;BME280;13742;49.306;8.636;2023-05-25T00:09:48;100979.39;;;14.09;49.42
25944;BME280;13742;49.306;8.636;2023-05-25T00:10:48;100979.09;;;14.08;49.29
25944;BME280;13742;49.306;8.636;2023-05-25T00:11:48;100978.70;;;14.08;49.04
25944;BME280;13742;49.306;8.636;2023-05-25T00:12:48;100981.03;;;14.08;49.15
25944;BME280;13742;49.306;8.636;2023-05-25T00:13:49;100979.28;;;14.03;49.31
25944;BME280;13742;49.306;8.636;2023-05-25T00:14:48;100983.08;;;14.05;49.34
25944;BME280;13742;49.306;8.636;2023-05-25T00:15:48;100976.77;;;14.05;49.47
25944;BME280;13742;49.306;8.636;2023-05-25T00:16:50;100977.05;;;14.05;49.38
25944;BME280;13742;49.306;8.636;2023-05-25T00:17:48;100979.06;;;14.06;49.46
25944;BME280;13742;49.306;8.636;2023-05-25T00:18:48;100978.25;;;14.04;49.40
25944;BME280;13742;49.306;8.636;2023-05-25T00:19:49;100979.96;;;14.04;49.32
25944;BME280;13742;49.306;8.636;2023-05-25T00:20:49;100979.27;;;13.91;49.39
25944;BME280;13742;49.306;8.636;2023-05-25T00:21:49;100975.69;;;13.92;49.27
25944;BME280;13742;49.306;8.636;2023-05-25T00:22:48;100978.25;;;13.93;49.18
25944;BME280;13742;49.306;8.636;2023-05-25T00:23:48;100978.05;;;13.95;49.40
25944;BME280;13742;49.306;8.636;2023-05-25T00:24:48;100979.81;;;13.96;49.77
25944;BME280;13742;49.306;8.636;2023-05-25T00:25:48;100977.92;;;13.97;49.54
25944;BME280;13742;49.306;8.636;2023-05-25T00:26:48;100976.17;;;13.98;49.83
25944;BME280;13742;49.306;8.636;2023-05-25T00:27:48;100976.12;;;13.98;49.62
25944;BME280;13742;49.306;8.636;2023-05-25T00:28:48;100974.23;;;13.94;49.84
25944;BME280;13742;49.306;8.636;2023-05-25T00:29:48;100975.45;;;13.92;50.12
25944;BME280;13742;49.306;8.636;2023-05-25T00:30:48;100970.82;;;13.93;49.96
25944;BME280;13742;49.306;8.636;2023-05-25T00:31:49;100971.72;;;13.91;50.70
25944;BME280;13742;49.306;8.636;2023-05-25T00:32:48;100971.47;;;13.84;50.77
25944;BME280;13742;49.306;8.636;2023-05-25T00:33:49;100968.77;;;13.86;50.32
25944;BME280;13742;49.306;8.636;2023-05-25T00:34:48;100971.88;;;13.85;50.56
25944;BME280;13742;49.306;8.636;2023-05-25T00:35:48;100973.35;;;13.84;50.76
25944;BME280;13742;49.306;8.636;2023-05-25T00:36:48;100973.39;;;13.83;50.33
25944;BME280;13742;49.306;8.636;2023-05-25T00:37:49;100974.13;;;13.84;50.49
25944;BME280;13742;49.306;8.636;2023-05-25T00:38:48;100977.86;;;13.85;51.03
25944;BME280;13742;49.306;8.636;2023-05-25T00:39:48;100974.14;;;13.79;50.94
25944;BME280;13742;49.306;8.636;2023-05-25T00:40:52;100973.39;;;13.75;50.88
25944;BME280;13742;49.306;8.636;2023-05-25T00:41:48;100976.56;;;13.76;50.57
25944;BME280;13742;49.306;8.636;2023-05-25T00:42:48;100977.28;;;13.77;50.49
25944;BME280;13742;49.306;8.636;2023-05-25T00:43:48;100976.78;;;13.77;50.45
25944;BME280;13742;49.306;8.636;2023-05-25T00:44:48;100975.05;;;13.78;50.95
25944;BME280;13742;49.306;8.636;2023-05-25T00:45:49;100974.28;;;13.78;51.29
25944;BME280;13742;49.306;8.636;2023-05-25T00:46:50;100972.77;;;13.74;51.45
25944;BME280;13742;49.306;8.636;2023-05-25T00:47:51;100970.51;;;13.73;51.02
25944;BME280;13742;49.306;8.636;2023-05-25T00:48:50;100973.50;;;13.73;51.19
25944;BME280;13742;49.306;8.636;2023-05-25T00:49:48;100971.25;;;13.73;50.92
25944;BME280;13742;49.306;8.636;2023-05-25T00:50:48;100973.08;;;13.74;51.10
25944;BME280;13742;49.306;8.636;2023-05-25T00:51:48;100979.33;;;13.73;51.57
25944;BME280;13742;49.306;8.636;2023-05-25T00:52:48;100977.33;;;13.73;51.10
25944;BME280;13742;49.306;8.636;2023-05-25T00:53:48;100976.89;;;13.73;51.10
25944;BME280;13742;49.306;8.636;2023-05-25T00:54:49;100980.78;;;13.71;51.20
25944;BME280;13742;49.306;8.636;2023-05-25T00:55:53;100978.52;;;13.71;51.49
25944;BME280;13742;49.306;8.636;2023-05-25T00:57:09;100974.26;;;13.66;51.32
25944;BME280;13742;49.306;8.636;2023-05-25T00:57:48;100979.03;;;13.65;50.84
25944;BME280;13742;49.306;8.636;2023-05-25T00:58:53;100980.58;;;13.64;51.15
25944;BME280;13742;49.306;8.636;2023-05-25T00:59:49;100982.63;;;13.65;50.86
25944;BME280;13742;49.306;8.636;2023-05-25T01:00:48;100979.06;;;13.64;50.71
25944;BME280;13742;49.306;8.636;2023-05-25T01:01:48;100978.98;;;13.64;51.16
25944;BME280;13742;49.306;8.636;2023-05-25T01:02:51;100981.20;;;13.65;51.46
25944;BME280;13742;49.306;8.636;2023-05-25T01:03:52;100979.64;;;13.65;51.30
25944;BME280;13742;49.306;8.636;2023-05-25T01:05:49;100977.76;;;13.64;51.14
25944;BME280;13742;49.306;8.636;2023-05-25T01:06:48;100980.01;;;13.63;51.12
25944;BME280;13742;49.306;8.636;2023-05-25T01:07:48;100978.33;;;13.58;51.18
25944;BME280;13742;49.306;8.636;2023-05-25T01:08:49;100981.08;;;13.57;51.07
25944;BME280;13742;49.306;8.636;2023-05-25T01:09:49;100978.48;;;13.57;51.07
25944;BME280;13742;49.306;8.636;2023-05-25T01:10:49;100977.64;;;13.56;51.56
25944;BME280;13742;49.306;8.636;2023-05-25T01:11:49;100979.88;;;13.58;51.11
25944;BME280;13742;49.306;8.636;2023-05-25T01:12:48;100979.30;;;13.57;51.07
25944;BME280;13742;49.306;8.636;2023-05-25T01:13:51;100981.05;;;13.56;51.10
25944;BME280;13742;49.306;8.636;2023-05-25T01:14:48;100980.94;;;13.56;50.97
25944;BME280;13742;49.306;8.636;2023-05-25T01:15:48;100980.45;;;13.54;51.66
25944;BME280;13742;49.306;8.636;2023-05-25T01:16:48;100980.98;;;13.50;51.50
25944;BME280;13742;49.306;8.636;2023-05-25T01:17:52;100980.56;;;13.51;51.48
25944;BME280;13742;49.306;8.636;2023-05-25T01:18:51;100980.06;;;13.51;51.26
25944;BME280;13742;49.306;8.636;2023-05-25T01:19:48;100982.13;;;13.52;51.33
25944;BME280;13742;49.306;8.636;2023-05-25T01:20:52;100981.02;;;13.52;51.23
25944;BME280;13742;49.306;8.636;2023-05-25T01:21:51;100981.59;;;13.53;51.50
25944;BME280;13742;49.306;8.636;2023-05-25T01:23:09;100976.95;;;13.53;51.53
25944;BME280;13742;49.306;8.636;2023-05-25T01:23:50;100977.17;;;13.53;51.27
25944;BME280;13742;49.306;8.636;2023-05-25T01:24:50;100979.88;;;13.55;51.42
25944;BME280;13742;49.306;8.636;2023-05-25T01:25:50;100978.29;;;13.56;51.26
25944;BME280;13742;49.306;8.636;2023-05-25T01:27:53;100976.92;;;13.54;52.01
25944;BME280;13742;49.306;8.636;2023-05-25T01:28:50;100976.48;;;13.54;51.67
25944;BME280;13742;49.306;8.636;2023-05-25T01:29:48;100979.45;;;13.51;51.56
25944;BME280;13742;49.306;8.636;2023-05-25T01:30:48;100977.44;;;13.50;51.90
25944;BME280;13742;49.306;8.636;2023-05-25T01:31:48;100981.30;;;13.49;52.06
25944;BME280;13742;49.306;8.636;2023-05-25T01:32:48;100985.09;;;13.43;52.20
25944;BME280;13742;49.306;8.636;2023-05-25T01:33:49;100982.44;;;13.44;51.78
25944;BME280;13742;49.306;8.636;2023-05-25T01:34:48;100984.11;;;13.44;51.75
25944;BME280;13742;49.306;8.636;2023-05-25T01:35:48;100980.28;;;13.44;51.65
25944;BME280;13742;49.306;8.636;2023-05-25T01:36:48;100985.67;;;13.43;52.15
25944;BME280;13742;49.306;8.636;2023-05-25T01:37:49;100986.54;;;13.41;51.80
25944;BME280;13742;49.306;8.636;2023-05-25T01:38:48;100985.86;;;13.39;51.74
25944;BME280;13742;49.306;8.636;2023-05-25T01:39:48;100986.94;;;13.40;51.86
25944;BME280;13742;49.306;8.636;2023-05-25T01:40:48;100988.98;;;13.40;51.62
25944;BME280;13742;49.306;8.636;2023-05-25T01:41:48;100987.34;;;13.40;51.58
25944;BME280;13742;49.306;8.636;2023-05-25T01:42:48;100988.45;;;13.40;52.01
25944;BME280;13742;49.306;8.636;2023-05-25T01:43:48;100992.90;;;13.41;51.75
25944;BME280;13742;49.306;8.636;2023-05-25T01:44:48;101001.41;;;13.42;51.88
25944;BME280;13742;49.306;8.636;2023-05-25T01:45:48;100996.47;;;13.40;51.84
25944;BME280;13742;49.306;8.636;2023-05-25T01:47:14;100996.69;;;13.41;52.14
25944;BME280;13742;49.306;8.636;2023-05-25T01:48:51;100991.39;;;13.39;52.32
25944;BME280;13742;49.306;8.636;2023-05-25T01:51:59;100993.12;;;13.36;52.19
25944;BME280;13742;49.306;8.636;2023-05-25T01:53:51;100994.88;;;13.34;52.88
25944;BME280;13742;49.306;8.636;2023-05-25T01:55:52;100993.70;;;13.31;52.71
25944;BME280;13742;49.306;8.636;2023-05-25T01:56:48;100993.77;;;13.29;52.66
25944;BME280;13742;49.306;8.636;2023-05-25T01:57:49;100992.48;;;13.28;52.53
25944;BME280;13742;49.306;8.636;2023-05-25T01:58:48;100993.27;;;13.26;52.63
25944;BME280;13742;49.306;8.636;2023-05-25T01:59:48;100996.19;;;13.26;52.80
25944;BME280;13742;49.306;8.636;2023-05-25T02:00:48;100995.28;;;13.25;52.42
25944;BME280;13742;49.306;8.636;2023-05-25T02:01:48;100990.72;;;13.26;53.22
25944;BME280;13742;49.306;8.636;2023-05-25T02:02:48;100988.34;;;13.26;53.06
25944;BME280;13742;49.306;8.636;2023-05-25T02:03:48;100988.81;;;13.25;52.97
25944;BME280;13742;49.306;8.636;2023-05-25T02:04:48;100984.75;;;13.24;53.40
25944;BME280;13742;49.306;8.636;2023-05-25T02:05:48;100984.68;;;13.23;53.01
25944;BME280;13742;49.306;8.636;2023-05-25T02:06:50;100985.11;;;13.20;53.55
25944;BME280;13742;49.306;8.636;2023-05-25T02:07:48;100991.02;;;13.21;53.16
25944;BME280;13742;49.306;8.636;2023-05-25T02:08:48;100991.50;;;13.19;53.11
25944;BME280;13742;49.306;8.636;2023-05-25T02:09:48;100991.61;;;13.19;53.14
25944;BME280;13742;49.306;8.636;2023-05-25T02:10:48;100987.86;;;13.17;52.77
25944;BME280;13742;49.306;8.636;2023-05-25T02:11:48;100988.97;;;13.17;53.35
25944;BME280;13742;49.306;8.636;2023-05-25T02:12:48;100988.95;;;13.16;53.66
25944;BME280;13742;49.306;8.636;2023-05-25T02:13:48;100988.81;;;13.15;53.26
25944;BME280;13742;49.306;8.636;2023-05-25T02:14:48;100987.13;;;13.14;53.80
25944;BME280;13742;49.306;8.636;2023-05-25T02:15:48;100985.56;;;13.13;53.59
25944;BME280;13742;49.306;8.636;2023-05-25T02:16:48;100986.44;;;13.13;53.53
25944;BME280;13742;49.306;8.636;2023-05-25T02:17:48;100983.72;;;13.10;53.36
25944;BME280;13742;49.306;8.636;2023-05-25T02:18:49;100985.63;;;13.11;53.59
25944;BME280;13742;49.306;8.636;2023-05-25T02:19:51;100982.56;;;13.11;54.02
25944;BME280;13742;49.306;8.636;2023-05-25T02:20:48;100983.41;;;13.11;53.66
25944;BME280;13742;49.306;8.636;2023-05-25T02:21:48;100981.48;;;13.11;53.32
25944;BME280;13742;49.306;8.636;2023-05-25T02:22:48;100982.50;;;13.06;53.72
25944;BME280;13742;49.306;8.636;2023-05-25T02:23:48;100979.67;;;13.01;53.67
25944;BME280;13742;49.306;8.636;2023-05-25T02:24:48;100982.48;;;12.82;53.89
25944;BME280;13742;49.306;8.636;2023-05-25T02:25:50;100979.84;;;12.67;54.50
25944;BME280;13742;49.306;8.636;2023-05-25T02:26:48;100982.09;;;12.75;54.54
25944;BME280;13742;49.306;8.636;2023-05-25T02:27:48;100985.93;;;12.76;54.55
25944;BME280;13742;49.306;8.636;2023-05-25T02:28:50;100983.02;;;12.77;54.44
25944;BME280;13742;49.306;8.636;2023-05-25T02:29:48;100982.23;;;12.74;54.54
25944;BME280;13742;49.306;8.636;2023-05-25T02:30:48;100983.19;;;12.76;54.13
25944;BME280;13742;49.306;8.636;2023-05-25T02:31:48;100984.19;;;12.76;54.03
25944;BME280;13742;49.306;8.636;2023-05-25T02:32:49;100981.95;;;12.76;54.21
25944;BME280;13742;49.306;8.636;2023-05-25T02:33:48;100982.31;;;12.66;54.74
25944;BME280;13742;49.306;8.636;2023-05-25T02:34:48;100981.00;;;12.60;54.85
25944;BME280;13742;49.306;8.636;2023-05-25T02:35:48;100976.44;;;12.53;55.01
25944;BME280;13742;49.306;8.636;2023-05-25T02:36:48;100983.36;;;12.30;55.66
25944;BME280;13742;49.306;8.636;2023-05-25T02:37:48;100980.69;;;12.19;56.26
25944;BME280;13742;49.306;8.636;2023-05-25T02:38:51;100980.97;;;12.18;56.39
25944;BME280;13742;49.306;8.636;2023-05-25T02:39:48;100979.11;;;12.09;56.71
25944;BME280;13742;49.306;8.636;2023-05-25T02:40:48;100975.14;;;12.01;57.02
25944;BME280;13742;49.306;8.636;2023-05-25T02:41:48;100979.52;;;11.96;57.29
25944;BME280;13742;49.306;8.636;2023-05-25T02:42:48;100976.33;;;12.00;57.39
25944;BME280;13742;49.306;8.636;2023-05-25T02:43:48;100975.00;;;11.94;57.67
25944;BME280;13742;49.306;8.636;2023-05-25T02:44:48;100980.49;;;11.91;58.18
25944;BME280;13742;49.306;8.636;2023-05-25T02:45:48;100978.36;;;11.88;58.06
25944;BME280;13742;49.306;8.636;2023-05-25T02:46:48;100971.73;;;11.59;58.94
25944;BME280;13742;49.306;8.636;2023-05-25T02:47:48;100972.28;;;11.49;59.43
25944;BME280;13742;49.306;8.636;2023-05-25T02:48:49;100977.70;;;11.55;59.57
25944;BME280;13742;49.306;8.636;2023-05-25T02:49:48;100973.83;;;11.45;59.92
25944;BME280;13742;49.306;8.636;2023-05-25T02:50:48;100976.61;;;11.34;59.99
25944;BME280;13742;49.306;8.636;2023-05-25T02:51:48;100980.11;;;11.15;60.72
25944;BME280;13742;49.306;8.636;2023-05-25T02:52:48;100974.73;;;11.20;60.72
25944;BME280;13742;49.306;8.636;2023-05-25T02:53:48;100977.69;;;11.36;60.44
25944;BME280;13742;49.306;8.636;2023-05-25T02:54:48;100980.02;;;11.22;60.73
25944;BME280;13742;49.306;8.636;2023-05-25T02:55:48;100974.80;;;11.20;60.83
25944;BME280;13742;49.306;8.636;2023-05-25T02:56:48;100973.70;;;11.29;60.71
25944;BME280;13742;49.306;8.636;2023-05-25T02:57:48;100976.03;;;11.05;61.38
25944;BME280;13742;49.306;8.636;2023-05-25T02:58:48;100975.75;;;11.12;61.27
25944;BME280;13742;49.306;8.636;2023-05-25T02:59:48;100983.06;;;11.03;61.92
25944;BME280;13742;49.306;8.636;2023-05-25T03:00:48;100977.20;;;11.04;61.59
25944;BME280;13742;49.306;8.636;2023-05-25T03:01:48;100976.45;;;11.16;61.42
25944;BME280;13742;49.306;8.636;2023-05-25T03:02:48;100981.27;;;11.22;60.58
25944;BME280;13742;49.306;8.636;2023-05-25T03:03:51;100981.97;;;11.29;60.35
25944;BME280;13742;49.306;8.636;2023-05-25T03:04:48;100977.05;;;11.34;60.51
25944;BME280;13742;49.306;8.636;2023-05-25T03:05:48;100984.00;;;11.38;59.79
25944;BME280;13742;49.306;8.636;2023-05-25T03:06:48;100983.69;;;11.42;59.86
25944;BME280;13742;49.306;8.636;2023-05-25T03:07:48;100979.39;;;11.44;60.07
25944;BME280;13742;49.306;8.636;2023-05-25T03:08:48;100979.17;;;11.47;60.09
25944;BME280;13742;49.306;8.636;2023-05-25T03:09:48;100979.76;;;11.50;59.64
25944;BME280;13742;49.306;8.636;2023-05-25T03:10:48;100977.70;;;11.54;59.99
25944;BME280;13742;49.306;8.636;2023-05-25T03:11:48;100973.84;;;11.43;60.52
25944;BME280;13742;49.306;8.636;2023-05-25T03:12:48;100976.66;;;11.45;60.64
25944;BME280;13742;49.306;8.636;2023-05-25T03:13:48;100973.00;;;11.49;60.24
25944;BME280;13742;49.306;8.636;2023-05-25T03:14:48;100975.59;;;11.53;59.52
25944;BME280;13742;49.306;8.636;2023-05-25T03:15:48;100978.38;;;11.58;60.22
25944;BME280;13742;49.306;8.636;2023-05-25T03:16:48;100978.81;;;11.56;60.28
25944;BME280;13742;49.306;8.636;2023-05-25T03:17:48;100983.48;;;11.32;61.27
25944;BME280;13742;49.306;8.636;2023-05-25T03:18:48;100983.53;;;11.46;60.92
25944;BME280;13742;49.306;8.636;2023-05-25T03:19:48;100982.81;;;11.35;61.04
25944;BME280;13742;49.306;8.636;2023-05-25T03:20:48;100986.80;;;11.14;61.85
25944;BME280;13742;49.306;8.636;2023-05-25T03:21:48;100988.94;;;11.18;61.86
25944;BME280;13742;49.306;8.636;2023-05-25T03:22:48;100992.82;;;11.03;62.42
25944;BME280;13742;49.306;8.636;2023-05-25T03:23:48;100998.94;;;10.90;62.82
25944;BME280;13742;49.306;8.636;2023-05-25T03:24:49;100996.70;;;10.77;63.57
25944;BME280;13742;49.306;8.636;2023-05-25T03:25:48;101001.97;;;10.73;63.66
25944;BME280;13742;49.306;8.636;2023-05-25T03:26:48;101002.84;;;10.85;63.41
25944;BME280;13742;49.306;8.636;2023-05-25T03:27:51;101006.36;;;10.81;63.57
25944;BME280;13742;49.306;8.636;2023-05-25T03:28:48;101000.02;;;10.64;64.00
25944;BME280;13742;49.306;8.636;2023-05-25T03:29:48;101000.80;;;10.76;63.64
25944;BME280;13742;49.306;8.636;2023-05-25T03:30:48;100999.03;;;10.87;63.06
25944;BME280;13742;49.306;8.636;2023-05-25T03:31:48;101000.80;;;10.94;63.35
25944;BME280;13742;49.306;8.636;2023-05-25T03:32:48;100998.68;;;10.95;63.38
25944;BME280;13742;49.306;8.636;2023-05-25T03:33:48;100996.03;;;11.02;62.61
25944;BME280;13742;49.306;8.636;2023-05-25T03:34:48;101000.82;;;11.05;62.29
25944;BME280;13742;49.306;8.636;2023-05-25T03:35:48;101006.13;;;11.04;62.57
25944;BME280;13742;49.306;8.636;2023-05-25T03:36:48;101001.27;;;11.07;61.97
25944;BME280;13742;49.306;8.636;2023-05-25T03:37:48;101001.94;;;11.11;62.24
25944;BME280;13742;49.306;8.636;2023-05-25T03:38:48;101006.47;;;11.14;62.20
25944;BME280;13742;49.306;8.636;2023-05-25T03:39:48;101004.03;;;11.15;62.51
25944;BME280;13742;49.306;8.636;2023-05-25T03:40:48;101004.19;;;11.13;62.55
25944;BME280;13742;49.306;8.636;2023-05-25T03:41:48;101009.98;;;11.17;62.05
25944;BME280;13742;49.306;8.636;2023-05-25T03:42:48;101007.06;;;11.17;61.86
25944;BME280;13742;49.306;8.636;2023-05-25T03:43:48;101008.45;;;11.19;61.49
25944;BME280;13742;49.306;8.636;2023-05-25T03:44:48;101008.97;;;11.20;61.49
25944;BME280;13742;49.306;8.636;2023-05-25T03:45:48;101012.92;;;11.23;61.23
25944;BME280;13742;49.306;8.636;2023-05-25T03:46:48;101012.32;;;11.25;62.38
25944;BME280;13742;49.306;8.636;2023-05-25T03:47:48;101014.91;;;11.25;61.75
25944;BME280;13742;49.306;8.636;2023-05-25T03:48:48;101018.28;;;11.27;61.82
25944;BME280;13742;49.306;8.636;2023-05-25T03:49:48;101017.48;;;11.26;62.28
25944;BME280;13742;49.306;8.636;2023-05-25T03:50:48;101017.93;;;11.07;63.17
25944;BME280;13742;49.306;8.636;2023-05-25T03:51:48;101015.52;;;11.16;62.76
25944;BME280;13742;49.306;8.636;2023-05-25T03:52:48;101018.38;;;11.14;62.74
25944;BME280;13742;49.306;8.636;2023-05-25T03:53:48;101016.33;;;11.19;61.96
25944;BME280;13742;49.306;8.636;2023-05-25T03:54:48;101017.13;;;11.22;62.53
25944;BME280;13742;49.306;8.636;2023-05-25T03:55:50;101018.16;;;11.25;62.65
25944;BME280;13742;49.306;8.636;2023-05-25T03:56:48;101023.41;;;11.27;62.43
25944;BME280;13742;49.306;8.636;2023-05-25T03:57:48;101021.84;;;11.28;61.97
25944;BME280;13742;49.306;8.636;2023-05-25T03:58:48;101023.91;;;11.29;62.67
25944;BME280;13742;49.306;8.636;2023-05-25T03:59:48;101025.09;;;11.21;62.81
25944;BME280;13742;49.306;8.636;2023-05-25T04:00:48;101021.22;;;11.24;62.50
25944;BME280;13742;49.306;8.636;2023-05-25T04:01:48;101026.39;;;11.24;61.99
25944;BME280;13742;49.306;8.636;2023-05-25T04:02:48;101028.26;;;11.27;62.35
25944;BME280;13742;49.306;8.636;2023-05-25T04:03:48;101029.02;;;11.30;61.84
25944;BME280;13742;49.306;8.636;2023-05-25T04:04:50;101028.60;;;11.32;61.69
25944;BME280;13742;49.306;8.636;2023-05-25T04:05:48;101029.57;;;11.32;61.71
25944;BME280;13742;49.306;8.636;2023-05-25T04:06:48;101033.16;;;11.33;61.91
25944;BME280;13742;49.306;8.636;2023-05-25T04:07:48;101033.31;;;11.33;62.16
25944;BME280;13742;49.306;8.636;2023-05-25T04:08:48;101028.83;;;11.33;62.12
25944;BME280;13742;49.306;8.636;2023-05-25T04:09:48;101033.31;;;11.31;62.25
25944;BME280;13742;49.306;8.636;2023-05-25T04:10:48;101034.76;;;11.27;63.02
25944;BME280;13742;49.306;8.636;2023-05-25T04:11:48;101035.64;;;11.27;62.92
25944;BME280;13742;49.306;8.636;2023-05-25T04:12:48;101035.52;;;11.25;63.09
25944;BME280;13742;49.306;8.636;2023-05-25T04:13:48;101034.72;;;11.29;62.51
25944;BME280;13742;49.306;8.636;2023-05-25T04:14:48;101036.92;;;11.31;62.00
25944;BME280;13742;49.306;8.636;2023-05-25T04:15:48;101036.63;;;11.32;62.57
25944;BME280;13742;49.306;8.636;2023-05-25T04:16:48;101037.87;;;11.34;61.99
25944;BME280;13742;49.306;8.636;2023-05-25T04:17:48;101042.02;;;11.35;62.75
25944;BME280;13742;49.306;8.636;2023-05-25T04:18:48;101042.00;;;11.33;63.38
25944;BME280;13742;49.306;8.636;2023-05-25T04:19:48;101042.75;;;11.19;63.67
25944;BME280;13742;49.306;8.636;2023-05-25T04:20:48;101044.91;;;11.23;63.35
25944;BME280;13742;49.306;8.636;2023-05-25T04:21:48;101044.89;;;11.25;62.92
25944;BME280;13742;49.306;8.636;2023-05-25T04:22:48;101046.38;;;11.27;63.23
25944;BME280;13742;49.306;8.636;2023-05-25T04:23:48;101042.88;;;11.19;63.70
25944;BME280;13742;49.306;8.636;2023-05-25T04:24:48;101047.78;;;11.04;64.25
25944;BME280;13742;49.306;8.636;2023-05-25T04:25:50;101042.95;;;11.16;63.32
25944;BME280;13742;49.306;8.636;2023-05-25T04:26:49;101045.40;;;11.21;63.63
25944;BME280;13742;49.306;8.636;2023-05-25T04:27:48;101042.72;;;10.96;64.75
25944;BME280;13742;49.306;8.636;2023-05-25T04:28:48;101039.59;;;11.01;64.35
25944;BME280;13742;49.306;8.636;2023-05-25T04:29:49;101042.14;;;11.12;63.92
25944;BME280;13742;49.306;8.636;2023-05-25T04:30:48;101040.30;;;11.14;64.23
25944;BME280;13742;49.306;8.636;2023-05-25T04:31:48;101043.08;;;11.12;64.26
25944;BME280;13742;49.306;8.636;2023-05-25T04:32:48;101040.61;;;11.17;63.32
25944;BME280;13742;49.306;8.636;2023-05-25T04:33:48;101040.69;;;11.20;63.20
25944;BME280;13742;49.306;8.636;2023-05-25T04:34:48;101041.45;;;11.21;63.55
25944;BME280;13742;49.306;8.636;2023-05-25T04:35:49;101044.45;;;11.23;63.41
25944;BME280;13742;49.306;8.636;2023-05-25T04:36:48;101041.08;;;11.25;62.68
25944;BME280;13742;49.306;8.636;2023-05-25T04:37:48;101040.59;;;11.27;63.02
25944;BME280;13742;49.306;8.636;2023-05-25T04:38:51;101048.46;;;11.28;63.21
25944;BME280;13742;49.306;8.636;2023-05-25T04:39:48;101044.30;;;11.29;62.94
25944;BME280;13742;49.306;8.636;2023-05-25T04:40:48;101051.66;;;11.30;62.36
25944;BME280;13742;49.306;8.636;2023-05-25T04:41:48;101050.11;;;11.33;62.64
25944;BME280;13742;49.306;8.636;2023-05-25T04:42:48;101052.76;;;11.35;62.66
25944;BME280;13742;49.306;8.636;2023-05-25T04:43:49;101050.61;;;11.38;61.97
25944;BME280;13742;49.306;8.636;2023-05-25T04:44:51;101052.75;;;11.42;63.41
25944;BME280;13742;49.306;8.636;2023-05-25T04:45:51;101049.59;;;11.45;62.63
25944;BME280;13742;49.306;8.636;2023-05-25T04:46:48;101051.34;;;11.48;63.11
25944;BME280;13742;49.306;8.636;2023-05-25T04:47:48;101050.09;;;11.49;63.24
25944;BME280;13742;49.306;8.636;2023-05-25T04:48:49;101049.45;;;11.35;63.78
25944;BME280;13742;49.306;8.636;2023-05-25T04:49:48;101048.36;;;11.40;63.40
25944;BME280;13742;49.306;8.636;2023-05-25T04:50:48;101047.80;;;11.38;63.34
25944;BME280;13742;49.306;8.636;2023-05-25T04:51:48;101047.53;;;11.42;62.57
25944;BME280;13742;49.306;8.636;2023-05-25T04:52:48;101047.89;;;11.47;62.42
25944;BME280;13742;49.306;8.636;2023-05-25T04:53:48;101045.80;;;11.47;62.91
25944;BME280;13742;49.306;8.636;2023-05-25T04:54:48;101048.11;;;11.49;62.73
25944;BME280;13742;49.306;8.636;2023-05-25T04:55:48;101048.03;;;11.50;62.68
25944;BME280;13742;49.306;8.636;2023-05-25T04:56:48;101049.75;;;11.51;62.28
25944;BME280;13742;49.306;8.636;2023-05-25T04:57:48;101050.91;;;11.54;63.28
25944;BME280;13742;49.306;8.636;2023-05-25T04:58:48;101054.92;;;11.57;62.96
25944;BME280;13742;49.306;8.636;2023-05-25T04:59:48;101052.53;;;11.60;62.59
25944;BME280;13742;49.306;8.636;2023-05-25T05:00:48;101053.39;;;11.61;62.62
25944;BME280;13742;49.306;8.636;2023-05-25T05:01:48;101060.02;;;11.65;62.43
25944;BME280;13742;49.306;8.636;2023-05-25T05:02:48;101055.41;;;11.65;62.50
25944;BME280;13742;49.306;8.636;2023-05-25T05:03:48;101057.43;;;11.69;62.38
25944;BME280;13742;49.306;8.636;2023-05-25T05:04:51;101057.55;;;11.71;62.46
25944;BME280;13742;49.306;8.636;2023-05-25T05:05:48;101056.14;;;11.73;62.53
25944;BME280;13742;49.306;8.636;2023-05-25T05:06:48;101055.23;;;11.76;62.29
25944;BME280;13742;49.306;8.636;2023-05-25T05:07:48;101053.78;;;11.77;62.75
25944;BME280;13742;49.306;8.636;2023-05-25T05:08:48;101060.55;;;11.79;62.72
25944;BME280;13742;49.306;8.636;2023-05-25T05:09:48;101055.47;;;11.80;62.18
25944;BME280;13742;49.306;8.636;2023-05-25T05:10:48;101061.68;;;11.85;62.68
25944;BME280;13742;49.306;8.636;2023-05-25T05:11:48;101060.55;;;11.86;62.26
25944;BME280;13742;49.306;8.636;2023-05-25T05:12:48;101061.19;;;11.89;62.23
25944;BME280;13742;49.306;8.636;2023-05-25T05:13:48;101064.95;;;11.93;62.40
25944;BME280;13742;49.306;8.636;2023-05-25T05:14:48;101065.95;;;11.95;62.39
25944;BME280;13742;49.306;8.636;2023-05-25T05:15:48;101068.18;;;11.97;61.97
25944;BME280;13742;49.306;8.636;2023-05-25T05:16:48;101065.45;;;12.01;62.16
25944;BME280;13742;49.306;8.636;2023-05-25T05:17:50;101069.88;;;12.04;62.43
25944;BME280;13742;49.306;8.636;2023-05-25T05:18:48;101069.30;;;12.05;62.06
25944;BME280;13742;49.306;8.636;2023-05-25T05:19:48;101069.93;;;12.08;61.71
25944;BME280;13742;49.306;8.636;2023-05-25T05:20:48;101071.81;;;12.11;61.97